sensor_id;sensor_type;location;lat;lon;timestamp;pressure;altitude;pressure_sealevel;temperature;humidity
56198;BME280;42700;42.524;12.052;2022-08-21T00:00:38;95810.38;;;22.72;100.00
56198;BME280;42700;42.524;12.052;2022-08-21T00:03:05;95727.50;;;22.90;100.00
56198;BME280;42700;42.524;12.052;2022-08-21T00:05:31;95652.63;;;22.99;100.00
56198;BME280;42700;42.524;12.052;2022-08-21T00:07:57;95581.56;;;23.08;100.00
56198;BME280;42700;42.524;12.052;2022-08-21T00:10:23;95510.94;;;23.18;100.00
56198;BME280;42700;42.524;12.052;2022-08-21T00:12:48;95429.75;;;23.27;100.00
56198;BME280;42700;42.524;12.052;2022-08-21T00:15:19;95318.78;;;23.35;100.00
56198;BME280;42700;42.524;12.052;2022-08-21T00:17:45;95214.47;;;23.38;100.00
56198;BME280;42700;42.524;12.052;2022-08-21T00:20:11;95055.69;;;23.33;100.00
56198;BME280;42700;42.524;12.052;2022-08-21T00:22:37;94955.34;;;23.38;100.00
56198;BME280;42700;42.524;12.052;2022-08-21T00:25:06;94825.25;;;23.35;100.00
56198;BME280;42700;42.524;12.052;2022-08-21T00:27:32;94763.69;;;23.23;100.00
56198;BME280;42700;42.524;12.052;2022-08-21T00:29:57;94854.81;;;23.19;100.00
56198;BME280;42700;42.524;12.052;2022-08-21T00:32:24;95091.38;;;23.18;100.00
56198;BME280;42700;42.524;12.052;2022-08-21T00:34:50;95316.19;;;23.13;100.00
56198;BME280;42700;42.524;12.052;2022-08-21T00:37:16;95519.31;;;23.08;100.00
56198;BME280;42700;42.524;12.052;2022-08-21T00:39:41;95658.53;;;23.01;100.00
56198;BME280;42700;42.524;12.052;2022-08-21T00:42:07;95799.38;;;22.96;100.00
56198;BME280;42700;42.524;12.052;2022-08-21T00:44:32;95883.38;;;22.91;100.00
56198;BME280;42700;42.524;12.052;2022-08-21T00:46:58;96032.78;;;22.88;100.00
56198;BME280;42700;42.524;12.052;2022-08-21T00:49:23;96155.72;;;22.82;100.00
56198;BME280;42700;42.524;12.052;2022-08-21T00:51:50;96256.47;;;22.74;100.00
56198;BME280;42700;42.524;12.052;2022-08-21T00:54:17;96362.06;;;22.69;100.00
56198;BME280;42700;42.524;12.052;2022-08-21T00:56:46;96444.38;;;22.62;100.00
56198;BME280;42700;42.524;12.052;2022-08-21T00:59:13;96488.56;;;22.53;100.00
56198;BME280;42700;42.524;12.052;2022-08-21T01:01:38;96515.91;;;22.46;100.00
56198;BME280;42700;42.524;12.052;2022-08-21T01:04:04;96545.13;;;22.44;100.00
56198;BME280;42700;42.524;12.052;2022-08-21T01:06:30;96506.38;;;22.54;100.00
56198;BME280;42700;42.524;12.052;2022-08-21T01:08:55;96369.28;;;22.49;100.00
56198;BME280;42700;42.524;12.052;2022-08-21T01:11:21;96266.84;;;22.42;100.00
56198;BME280;42700;42.524;12.052;2022-08-21T01:13:46;96274.16;;;22.42;100.00
56198;BME280;42700;42.524;12.052;2022-08-21T01:16:13;96281.25;;;22.38;100.00
56198;BME280;42700;42.524;12.052;2022-08-21T01:18:40;96305.88;;;22.36;100.00
56198;BME280;42700;42.524;12.052;2022-08-21T01:23:31;96333.25;;;22.29;100.00
56198;BME280;42700;42.524;12.052;2022-08-21T01:25:57;96384.63;;;22.29;100.00
56198;BME280;42700;42.524;12.052;2022-08-21T01:28:22;96397.84;;;22.26;100.00
56198;BME280;42700;42.524;12.052;2022-08-21T01:30:50;96440.31;;;22.25;100.00
56198;BME280;42700;42.524;12.052;2022-08-21T01:33:17;96506.00;;;22.26;100.00
56198;BME280;42700;42.524;12.052;2022-08-21T01:35:43;96578.47;;;22.24;100.00
56198;BME280;42700;42.524;12.052;2022-08-21T01:38:09;96644.47;;;22.23;100.00
56198;BME280;42700;42.524;12.052;2022-08-21T01:40:34;96711.78;;;22.19;100.00
56198;BME280;42700;42.524;12.052;2022-08-21T01:43:00;96729.13;;;22.13;100.00
56198;BME280;42700;42.524;12.052;2022-08-21T01:45:25;96712.63;;;22.09;100.00
56198;BME280;42700;42.524;12.052;2022-08-21T01:47:51;96713.69;;;22.14;100.00
56198;BME280;42700;42.524;12.052;2022-08-21T01:50:18;96683.13;;;22.18;100.00
56198;BME280;42700;42.524;12.052;2022-08-21T01:52:44;96690.94;;;22.25;100.00
56198;BME280;42700;42.524;12.052;2022-08-21T01:55:10;96706.38;;;22.29;100.00
56198;BME280;42700;42.524;12.052;2022-08-21T01:57:36;96742.63;;;22.28;100.00
56198;BME280;42700;42.524;12.052;2022-08-21T02:00:04;96779.06;;;22.26;100.00
56198;BME280;42700;42.524;12.052;2022-08-21T02:02:30;96830.75;;;22.24;100.00
56198;BME280;42700;42.524;12.052;2022-08-21T02:04:56;96844.28;;;22.24;100.00
56198;BME280;42700;42.524;12.052;2022-08-21T02:07:21;96832.91;;;22.17;100.00
56198;BME280;42700;42.524;12.052;2022-08-21T02:09:47;96824.81;;;22.12;100.00
56198;BME280;42700;42.524;12.052;2022-08-21T02:12:12;96822.38;;;22.10;100.00
56198;BME280;42700;42.524;12.052;2022-08-21T02:14:38;96846.44;;;22.12;100.00
56198;BME280;42700;42.524;12.052;2022-08-21T02:17:04;96861.84;;;22.11;100.00
56198;BME280;42700;42.524;12.052;2022-08-21T02:19:29;96849.13;;;22.07;100.00
56198;BME280;42700;42.524;12.052;2022-08-21T02:21:55;96828.59;;;22.01;100.00
56198;BME280;42700;42.524;12.052;2022-08-21T02:24:20;96822.13;;;21.97;100.00
56198;BME280;42700;42.524;12.052;2022-08-21T02:26:46;96802.66;;;21.95;100.00
56198;BME280;42700;42.524;12.052;2022-08-21T02:29:12;96796.44;;;21.94;100.00
56198;BME280;42700;42.524;12.052;2022-08-21T02:31:37;96796.16;;;21.90;100.00
56198;BME280;42700;42.524;12.052;2022-08-21T02:34:03;96812.91;;;21.87;100.00
56198;BME280;42700;42.524;12.052;2022-08-21T02:36:28;96766.44;;;21.85;100.00
56198;BME280;42700;42.524;12.052;2022-08-21T02:38:54;96692.97;;;21.78;100.00
56198;BME280;42700;42.524;12.052;2022-08-21T02:41:20;96624.09;;;21.65;100.00
56198;BME280;42700;42.524;12.052;2022-08-21T02:43:46;96511.53;;;21.50;100.00
56198;BME280;42700;42.524;12.052;2022-08-21T02:46:14;96477.50;;;21.39;100.00
56198;BME280;42700;42.524;12.052;2022-08-21T02:48:40;96513.16;;;21.31;100.00
56198;BME280;42700;42.524;12.052;2022-08-21T02:51:07;96557.19;;;21.21;100.00
56198;BME280;42700;42.524;12.052;2022-08-21T02:53:33;96626.31;;;21.17;100.00
56198;BME280;42700;42.524;12.052;2022-08-21T02:56:00;96670.03;;;21.14;100.00
56198;BME280;42700;42.524;12.052;2022-08-21T02:58:30;96699.97;;;21.07;100.00
56198;BME280;42700;42.524;12.052;2022-08-21T03:00:56;96642.22;;;20.93;100.00
56198;BME280;42700;42.524;12.052;2022-08-21T03:03:23;96585.03;;;20.80;100.00
56198;BME280;42700;42.524;12.052;2022-08-21T03:05:49;96631.09;;;20.69;100.00
56198;BME280;42700;42.524;12.052;2022-08-21T03:08:16;96737.59;;;20.61;100.00
56198;BME280;42700;42.524;12.052;2022-08-21T03:10:43;96804.50;;;20.59;100.00
56198;BME280;42700;42.524;12.052;2022-08-21T03:13:09;96851.41;;;20.58;100.00
56198;BME280;42700;42.524;12.052;2022-08-21T03:15:35;96882.13;;;20.57;100.00
56198;BME280;42700;42.524;12.052;2022-08-21T03:18:01;96885.91;;;20.56;100.00
56198;BME280;42700;42.524;12.052;2022-08-21T03:20:28;96878.88;;;20.55;100.00
56198;BME280;42700;42.524;12.052;2022-08-21T03:22:54;96868.09;;;20.55;100.00
56198;BME280;42700;42.524;12.052;2022-08-21T03:25:20;96843.28;;;20.53;100.00
56198;BME280;42700;42.524;12.052;2022-08-21T03:27:46;96823.28;;;20.49;100.00
56198;BME280;42700;42.524;12.052;2022-08-21T03:30:14;96794.69;;;20.42;100.00
56198;BME280;42700;42.524;12.052;2022-08-21T03:32:40;96776.88;;;20.36;100.00
56198;BME280;42700;42.524;12.052;2022-08-21T03:35:07;96791.97;;;20.37;100.00
56198;BME280;42700;42.524;12.052;2022-08-21T03:37:33;96802.78;;;20.42;100.00
56198;BME280;42700;42.524;12.052;2022-08-21T03:39:59;96826.59;;;20.56;100.00
56198;BME280;42700;42.524;12.052;2022-08-21T03:42:24;96801.59;;;20.71;100.00
56198;BME280;42700;42.524;12.052;2022-08-21T03:44:50;96757.69;;;20.80;100.00
56198;BME280;42700;42.524;12.052;2022-08-21T03:47:15;96691.84;;;20.87;100.00
56198;BME280;42700;42.524;12.052;2022-08-21T03:49:41;96612.00;;;20.91;100.00
56198;BME280;42700;42.524;12.052;2022-08-21T03:52:07;96592.56;;;20.99;100.00
56198;BME280;42700;42.524;12.052;2022-08-21T03:54:32;96608.47;;;21.16;100.00
56198;BME280;42700;42.524;12.052;2022-08-21T03:56:58;96594.16;;;21.31;100.00
56198;BME280;42700;42.524;12.052;2022-08-21T03:59:23;96523.41;;;21.39;100.00
56198;BME280;42700;42.524;12.052;2022-08-21T04:01:56;96493.69;;;21.49;100.00
56198;BME280;42700;42.524;12.052;2022-08-21T04:04:22;96413.75;;;21.53;100.00
56198;BME280;42700;42.524;12.052;2022-08-21T04:06:47;96363.44;;;21.63;100.00
56198;BME280;42700;42.524;12.052;2022-08-21T04:09:13;96304.28;;;21.66;100.00
56198;BME280;42700;42.524;12.052;2022-08-21T04:11:38;96250.75;;;21.73;100.00
56198;BME280;42700;42.524;12.052;2022-08-21T04:14:04;96190.19;;;21.80;100.00
56198;BME280;42700;42.524;12.052;2022-08-21T04:16:30;96146.63;;;21.86;100.00
56198;BME280;42700;42.524;12.052;2022-08-21T04:18:56;96066.09;;;21.88;100.00
56198;BME280;42700;42.524;12.052;2022-08-21T04:21:21;95995.75;;;21.93;100.00
56198;BME280;42700;42.524;12.052;2022-08-21T04:23:48;95896.28;;;21.96;100.00
56198;BME280;42700;42.524;12.052;2022-08-21T04:26:13;95822.16;;;22.02;100.00
56198;BME280;42700;42.524;12.052;2022-08-21T04:28:39;95748.31;;;22.06;100.00
56198;BME280;42700;42.524;12.052;2022-08-21T04:31:04;95664.75;;;22.10;100.00
56198;BME280;42700;42.524;12.052;2022-08-21T04:33:30;95643.53;;;22.17;100.00
56198;BME280;42700;42.524;12.052;2022-08-21T04:35:55;95572.66;;;22.20;100.00
56198;BME280;42700;42.524;12.052;2022-08-21T04:38:21;95493.19;;;22.21;100.00
56198;BME280;42700;42.524;12.052;2022-08-21T04:40:47;95361.84;;;22.20;100.00
56198;BME280;42700;42.524;12.052;2022-08-21T04:43:13;95356.22;;;22.30;100.00
56198;BME280;42700;42.524;12.052;2022-08-21T04:45:40;95250.66;;;22.36;100.00
56198;BME280;42700;42.524;12.052;2022-08-21T04:48:08;95112.63;;;22.32;100.00
56198;BME280;42700;42.524;12.052;2022-08-21T04:53:06;95011.19;;;22.35;100.00
56198;BME280;42700;42.524;12.052;2022-08-21T04:55:32;94989.41;;;22.40;100.00
56198;BME280;42700;42.524;12.052;2022-08-21T04:57:58;94999.44;;;22.48;100.00
56198;BME280;42700;42.524;12.052;2022-08-21T05:00:24;94790.44;;;22.56;100.00
56198;BME280;42700;42.524;12.052;2022-08-21T05:02:51;94619.91;;;22.61;100.00
56198;BME280;42700;42.524;12.052;2022-08-21T05:05:21;94431.81;;;22.73;100.00
56198;BME280;42700;42.524;12.052;2022-08-21T05:07:46;94225.81;;;22.71;100.00
56198;BME280;42700;42.524;12.052;2022-08-21T05:10:13;94099.06;;;22.81;100.00
56198;BME280;42700;42.524;12.052;2022-08-21T05:12:39;93989.63;;;22.79;100.00
56198;BME280;42700;42.524;12.052;2022-08-21T05:15:07;93772.44;;;22.75;100.00
56198;BME280;42700;42.524;12.052;2022-08-21T05:17:33;93752.97;;;22.85;100.00
56198;BME280;42700;42.524;12.052;2022-08-21T05:19:58;93592.16;;;22.98;100.00
56198;BME280;42700;42.524;12.052;2022-08-21T05:22:24;93542.69;;;22.98;100.00
56198;BME280;42700;42.524;12.052;2022-08-21T05:24:50;93514.16;;;23.00;100.00
56198;BME280;42700;42.524;12.052;2022-08-21T05:27:15;93505.25;;;23.00;100.00
56198;BME280;42700;42.524;12.052;2022-08-21T05:29:41;93759.09;;;22.98;100.00
56198;BME280;42700;42.524;12.052;2022-08-21T05:32:10;94218.16;;;22.97;100.00
56198;BME280;42700;42.524;12.052;2022-08-21T05:34:36;94669.00;;;22.93;100.00
56198;BME280;42700;42.524;12.052;2022-08-21T05:37:01;95183.38;;;23.00;100.00
56198;BME280;42700;42.524;12.052;2022-08-21T05:39:27;95480.81;;;23.11;100.00
56198;BME280;42700;42.524;12.052;2022-08-21T05:41:53;95694.34;;;23.12;100.00
56198;BME280;42700;42.524;12.052;2022-08-21T05:44:18;95932.13;;;23.19;100.00
56198;BME280;42700;42.524;12.052;2022-08-21T05:46:44;96243.41;;;23.24;100.00
56198;BME280;42700;42.524;12.052;2022-08-21T05:49:10;96480.53;;;23.30;100.00
56198;BME280;42700;42.524;12.052;2022-08-21T05:51:35;96652.69;;;23.36;100.00
56198;BME280;42700;42.524;12.052;2022-08-21T05:54:01;96823.50;;;23.55;100.00
56198;BME280;42700;42.524;12.052;2022-08-21T05:56:26;96883.84;;;23.66;100.00
56198;BME280;42700;42.524;12.052;2022-08-21T05:58:52;96956.69;;;23.83;100.00
56198;BME280;42700;42.524;12.052;2022-08-21T06:01:17;96861.41;;;24.00;100.00
56198;BME280;42700;42.524;12.052;2022-08-21T06:03:43;96764.50;;;24.11;100.00
56198;BME280;42700;42.524;12.052;2022-08-21T06:06:09;96675.72;;;24.22;100.00
56198;BME280;42700;42.524;12.052;2022-08-21T06:08:35;96511.75;;;24.33;100.00
56198;BME280;42700;42.524;12.052;2022-08-21T06:11:01;96189.28;;;24.45;100.00
56198;BME280;42700;42.524;12.052;2022-08-21T06:13:27;95906.94;;;24.56;100.00
56198;BME280;42700;42.524;12.052;2022-08-21T06:16:12;95684.06;;;24.71;100.00
56198;BME280;42700;42.524;12.052;2022-08-21T06:18:38;95142.06;;;24.68;100.00
56198;BME280;42700;42.524;12.052;2022-08-21T06:21:04;94046.03;;;24.80;100.00
56198;BME280;42700;42.524;12.052;2022-08-21T06:23:30;93762.78;;;25.08;100.00
56198;BME280;42700;42.524;12.052;2022-08-21T06:25:56;93239.06;;;25.04;100.00
56198;BME280;42700;42.524;12.052;2022-08-21T06:28:21;92987.59;;;25.30;100.00
56198;BME280;42700;42.524;12.052;2022-08-21T06:30:47;92786.31;;;25.53;100.00
56198;BME280;42700;42.524;12.052;2022-08-21T06:33:13;92672.66;;;25.66;100.00
56198;BME280;42700;42.524;12.052;2022-08-21T06:35:38;92931.00;;;25.72;100.00
56198;BME280;42700;42.524;12.052;2022-08-21T06:38:04;92473.63;;;25.69;100.00
56198;BME280;42700;42.524;12.052;2022-08-21T06:40:29;91883.88;;;25.78;100.00
56198;BME280;42700;42.524;12.052;2022-08-21T06:42:55;91389.78;;;25.91;100.00
56198;BME280;42700;42.524;12.052;2022-08-21T06:45:21;91133.78;;;25.90;100.00
56198;BME280;42700;42.524;12.052;2022-08-21T06:47:46;90464.03;;;25.96;100.00
56198;BME280;42700;42.524;12.052;2022-08-21T06:50:12;90449.00;;;26.14;100.00
56198;BME280;42700;42.524;12.052;2022-08-21T06:52:38;90380.78;;;26.40;100.00
56198;BME280;42700;42.524;12.052;2022-08-21T06:55:04;90120.34;;;26.57;100.00
56198;BME280;42700;42.524;12.052;2022-08-21T06:57:31;90071.81;;;26.74;100.00
56198;BME280;42700;42.524;12.052;2022-08-21T06:59:56;90001.34;;;26.85;100.00
56198;BME280;42700;42.524;12.052;2022-08-21T07:02:22;89964.16;;;26.91;100.00
56198;BME280;42700;42.524;12.052;2022-08-21T07:04:47;90157.38;;;27.12;100.00
56198;BME280;42700;42.524;12.052;2022-08-21T07:07:13;88082.09;;;26.69;100.00
56198;BME280;42700;42.524;12.052;2022-08-21T07:09:38;86680.84;;;26.50;100.00
56198;BME280;42700;42.524;12.052;2022-08-21T07:12:04;86850.94;;;26.92;100.00
56198;BME280;42700;42.524;12.052;2022-08-21T07:14:30;86589.19;;;27.13;100.00
56198;BME280;42700;42.524;12.052;2022-08-21T07:16:56;87315.56;;;27.63;100.00
56198;BME280;42700;42.524;12.052;2022-08-21T07:19:21;88142.59;;;27.63;100.00
56198;BME280;42700;42.524;12.052;2022-08-21T07:21:47;88091.72;;;27.90;100.00
56198;BME280;42700;42.524;12.052;2022-08-21T07:24:12;88976.19;;;28.00;100.00
56198;BME280;42700;42.524;12.052;2022-08-21T07:26:38;90666.53;;;28.36;100.00
56198;BME280;42700;42.524;12.052;2022-08-21T07:29:04;89057.38;;;28.07;100.00
56198;BME280;42700;42.524;12.052;2022-08-21T07:31:30;87377.38;;;27.84;100.00
56198;BME280;42700;42.524;12.052;2022-08-21T07:33:56;85912.97;;;27.73;100.00
56198;BME280;42700;42.524;12.052;2022-08-21T07:36:21;87647.66;;;28.34;100.00
56198;BME280;42700;42.524;12.052;2022-08-21T07:38:47;87516.50;;;28.22;100.00
56198;BME280;42700;42.524;12.052;2022-08-21T07:41:14;85879.88;;;28.24;100.00
56198;BME280;42700;42.524;12.052;2022-08-21T07:43:41;88619.41;;;28.77;100.00
56198;BME280;42700;42.524;12.052;2022-08-21T07:46:06;90319.72;;;29.10;100.00
56198;BME280;42700;42.524;12.052;2022-08-21T07:48:32;90415.75;;;28.84;100.00
56198;BME280;42700;42.524;12.052;2022-08-21T07:50:58;86830.03;;;28.74;100.00
56198;BME280;42700;42.524;12.052;2022-08-21T07:53:25;87108.25;;;29.09;100.00
56198;BME280;42700;42.524;12.052;2022-08-21T07:55:50;87491.88;;;29.30;100.00
56198;BME280;42700;42.524;12.052;2022-08-21T07:58:16;85876.66;;;29.15;100.00
56198;BME280;42700;42.524;12.052;2022-08-21T08:00:42;85160.03;;;28.94;100.00
56198;BME280;42700;42.524;12.052;2022-08-21T08:03:07;85592.94;;;29.11;100.00
56198;BME280;42700;42.524;12.052;2022-08-21T08:05:33;84762.75;;;29.16;100.00
56198;BME280;42700;42.524;12.052;2022-08-21T08:08:02;85478.72;;;29.37;100.00
56198;BME280;42700;42.524;12.052;2022-08-21T08:10:27;89127.03;;;29.87;100.00
56198;BME280;42700;42.524;12.052;2022-08-21T08:12:53;85545.88;;;29.66;100.00
56198;BME280;42700;42.524;12.052;2022-08-21T08:15:21;90676.31;;;30.21;100.00
56198;BME280;42700;42.524;12.052;2022-08-21T08:17:46;86180.31;;;29.88;100.00
56198;BME280;42700;42.524;12.052;2022-08-21T08:20:13;84623.38;;;29.79;100.00
56198;BME280;42700;42.524;12.052;2022-08-21T08:22:41;89207.31;;;30.20;100.00
56198;BME280;42700;42.524;12.052;2022-08-21T08:25:08;85533.53;;;30.10;100.00
56198;BME280;42700;42.524;12.052;2022-08-21T08:27:34;88959.63;;;30.53;100.00
56198;BME280;42700;42.524;12.052;2022-08-21T08:29:59;89044.69;;;30.68;100.00
56198;BME280;42700;42.524;12.052;2022-08-21T08:32:25;88705.47;;;30.66;100.00
56198;BME280;42700;42.524;12.052;2022-08-21T08:34:51;89640.03;;;31.02;100.00
56198;BME280;42700;42.524;12.052;2022-08-21T08:37:17;93444.97;;;31.22;100.00
56198;BME280;42700;42.524;12.052;2022-08-21T08:39:43;94555.00;;;31.35;100.00
56198;BME280;42700;42.524;12.052;2022-08-21T08:42:09;94637.34;;;31.56;100.00
56198;BME280;42700;42.524;12.052;2022-08-21T08:44:37;92522.19;;;31.66;100.00
56198;BME280;42700;42.524;12.052;2022-08-21T08:47:03;88562.81;;;31.35;100.00
56198;BME280;42700;42.524;12.052;2022-08-21T08:49:31;90762.97;;;31.75;100.00
56198;BME280;42700;42.524;12.052;2022-08-21T08:52:43;91547.25;;;31.79;100.00
56198;BME280;42700;42.524;12.052;2022-08-21T08:54:51;90512.28;;;31.91;100.00
56198;BME280;42700;42.524;12.052;2022-08-21T08:57:23;86425.50;;;31.87;100.00
56198;BME280;42700;42.524;12.052;2022-08-21T08:59:53;84487.19;;;31.87;100.00
56198;BME280;42700;42.524;12.052;2022-08-21T09:02:20;85568.50;;;32.21;100.00
56198;BME280;42700;42.524;12.052;2022-08-21T09:04:48;89034.97;;;32.58;100.00
56198;BME280;42700;42.524;12.052;2022-08-21T09:10:02;90193.84;;;32.70;100.00
56198;BME280;42700;42.524;12.052;2022-08-21T09:14:59;87995.63;;;32.86;100.00
56198;BME280;42700;42.524;12.052;2022-08-21T09:17:36;86777.72;;;33.21;100.00
56198;BME280;42700;42.524;12.052;2022-08-21T09:22:40;82975.47;;;32.69;100.00
56198;BME280;42700;42.524;12.052;2022-08-21T09:25:45;84661.41;;;33.10;100.00
56198;BME280;42700;42.524;12.052;2022-08-21T09:28:00;85917.69;;;32.95;100.00
56198;BME280;42700;42.524;12.052;2022-08-21T09:30:28;84623.47;;;32.82;100.00
56198;BME280;42700;42.524;12.052;2022-08-21T09:32:54;89108.47;;;32.91;100.00
56198;BME280;42700;42.524;12.052;2022-08-21T09:35:20;91065.47;;;32.99;100.00
56198;BME280;42700;42.524;12.052;2022-08-21T09:37:48;91774.53;;;33.18;100.00
56198;BME280;42700;42.524;12.052;2022-08-21T09:40:27;89872.81;;;33.28;100.00
56198;BME280;42700;42.524;12.052;2022-08-21T09:42:59;89144.19;;;33.58;100.00
56198;BME280;42700;42.524;12.052;2022-08-21T09:45:25;86270.88;;;33.43;100.00
56198;BME280;42700;42.524;12.052;2022-08-21T09:47:51;84145.59;;;33.42;100.00
56198;BME280;42700;42.524;12.052;2022-08-21T09:50:21;79762.66;;;31.70;100.00
56198;BME280;42700;42.524;12.052;2022-08-21T09:52:51;80668.69;;;32.22;100.00
56198;BME280;42700;42.524;12.052;2022-08-21T09:58:38;85404.63;;;32.29;100.00
56198;BME280;42700;42.524;12.052;2022-08-21T10:01:05;87967.97;;;33.00;100.00
56198;BME280;42700;42.524;12.052;2022-08-21T10:03:31;88093.63;;;33.24;100.00
56198;BME280;42700;42.524;12.052;2022-08-21T10:05:58;84211.50;;;32.73;100.00
56198;BME280;42700;42.524;12.052;2022-08-21T10:08:25;90114.69;;;33.19;100.00
56198;BME280;42700;42.524;12.052;2022-08-21T10:10:52;90674.47;;;33.06;100.00
56198;BME280;42700;42.524;12.052;2022-08-21T10:13:26;89351.75;;;32.83;100.00
56198;BME280;42700;42.524;12.052;2022-08-21T10:18:35;84300.38;;;32.46;100.00
56198;BME280;42700;42.524;12.052;2022-08-21T10:23:51;83105.09;;;32.37;100.00
56198;BME280;42700;42.524;12.052;2022-08-21T10:31:18;84811.06;;;32.79;100.00
56198;BME280;42700;42.524;12.052;2022-08-21T10:34:03;85142.00;;;32.97;100.00
56198;BME280;42700;42.524;12.052;2022-08-21T10:36:33;84298.47;;;33.17;100.00
56198;BME280;42700;42.524;12.052;2022-08-21T10:39:04;83729.47;;;33.10;100.00
56198;BME280;42700;42.524;12.052;2022-08-21T10:44:23;84083.03;;;33.10;100.00
56198;BME280;42700;42.524;12.052;2022-08-21T10:49:40;85676.25;;;32.90;100.00
56198;BME280;42700;42.524;12.052;2022-08-21T10:57:16;86535.09;;;34.34;100.00
56198;BME280;42700;42.524;12.052;2022-08-21T10:59:47;86740.06;;;34.83;100.00
56198;BME280;42700;42.524;12.052;2022-08-21T11:07:38;84088.50;;;35.18;100.00
56198;BME280;42700;42.524;12.052;2022-08-21T11:10:13;81206.50;;;34.88;100.00
56198;BME280;42700;42.524;12.052;2022-08-21T11:12:42;82849.25;;;34.96;100.00
56198;BME280;42700;42.524;12.052;2022-08-21T11:17:39;83745.00;;;35.86;100.00
56198;BME280;42700;42.524;12.052;2022-08-21T11:20:22;83734.47;;;36.31;96.45
56198;BME280;42700;42.524;12.052;2022-08-21T11:25:40;86654.91;;;36.54;100.00
56198;BME280;42700;42.524;12.052;2022-08-21T11:28:23;86951.72;;;36.97;100.00
56198;BME280;42700;42.524;12.052;2022-08-21T11:36:12;82907.91;;;37.17;100.00
56198;BME280;42700;42.524;12.052;2022-08-21T11:38:42;79952.03;;;35.69;100.00
56198;BME280;42700;42.524;12.052;2022-08-21T11:43:42;79206.88;;;34.23;100.00
56198;BME280;42700;42.524;12.052;2022-08-21T11:46:17;82672.03;;;34.29;100.00
56198;BME280;42700;42.524;12.052;2022-08-21T11:48:48;79480.13;;;33.86;100.00
56198;BME280;42700;42.524;12.052;2022-08-21T11:51:32;85703.50;;;34.25;100.00
56198;BME280;42700;42.524;12.052;2022-08-21T11:54:03;89302.88;;;34.86;100.00
56198;BME280;42700;42.524;12.052;2022-08-21T11:56:32;86860.78;;;34.35;100.00
56198;BME280;42700;42.524;12.052;2022-08-21T11:59:01;89399.41;;;34.48;100.00
56198;BME280;42700;42.524;12.052;2022-08-21T12:01:36;87488.56;;;34.05;100.00
56198;BME280;42700;42.524;12.052;2022-08-21T12:04:08;87010.59;;;33.95;100.00
56198;BME280;42700;42.524;12.052;2022-08-21T12:06:39;90683.22;;;34.13;100.00
56198;BME280;42700;42.524;12.052;2022-08-21T12:09:06;87044.59;;;33.71;98.44
56198;BME280;42700;42.524;12.052;2022-08-21T12:11:48;87972.50;;;34.01;100.00
56198;BME280;42700;42.524;12.052;2022-08-21T12:14:16;90756.78;;;34.35;100.00
56198;BME280;42700;42.524;12.052;2022-08-21T12:16:43;91681.91;;;34.81;100.00
56198;BME280;42700;42.524;12.052;2022-08-21T12:19:13;89922.56;;;34.65;100.00
56198;BME280;42700;42.524;12.052;2022-08-21T12:26:50;83380.38;;;33.78;96.89
56198;BME280;42700;42.524;12.052;2022-08-21T12:29:21;88917.22;;;34.82;100.00
56198;BME280;42700;42.524;12.052;2022-08-21T12:31:59;89420.34;;;34.91;100.00
56198;BME280;42700;42.524;12.052;2022-08-21T12:34:30;86455.75;;;34.64;100.00
56198;BME280;42700;42.524;12.052;2022-08-21T12:37:02;89474.22;;;34.73;100.00
56198;BME280;42700;42.524;12.052;2022-08-21T12:39:29;89710.84;;;34.54;100.00
56198;BME280;42700;42.524;12.052;2022-08-21T12:42:16;90497.88;;;34.79;100.00
56198;BME280;42700;42.524;12.052;2022-08-21T12:44:44;89889.00;;;35.10;100.00
56198;BME280;42700;42.524;12.052;2022-08-21T12:47:16;90764.63;;;35.50;100.00
56198;BME280;42700;42.524;12.052;2022-08-21T12:50:00;85904.69;;;34.95;100.00
56198;BME280;42700;42.524;12.052;2022-08-21T12:52:35;85710.47;;;35.18;94.39
56198;BME280;42700;42.524;12.052;2022-08-21T12:55:02;88102.22;;;35.76;96.46
56198;BME280;42700;42.524;12.052;2022-08-21T12:57:28;86246.41;;;36.16;96.75
56198;BME280;42700;42.524;12.052;2022-08-21T12:59:55;87602.41;;;36.38;100.00
56198;BME280;42700;42.524;12.052;2022-08-21T13:02:24;88467.09;;;36.24;100.00
56198;BME280;42700;42.524;12.052;2022-08-21T13:04:51;88499.22;;;35.96;100.00
56198;BME280;42700;42.524;12.052;2022-08-21T13:07:24;87613.00;;;35.63;100.00
56198;BME280;42700;42.524;12.052;2022-08-21T13:09:52;88113.28;;;35.51;100.00
56198;BME280;42700;42.524;12.052;2022-08-21T13:12:19;88376.66;;;35.64;100.00
56198;BME280;42700;42.524;12.052;2022-08-21T13:14:45;88427.28;;;36.09;100.00
56198;BME280;42700;42.524;12.052;2022-08-21T13:17:16;88605.72;;;36.82;100.00
56198;BME280;42700;42.524;12.052;2022-08-21T13:20:06;88117.16;;;37.37;100.00
56198;BME280;42700;42.524;12.052;2022-08-21T13:22:39;87700.97;;;38.12;97.20
56198;BME280;42700;42.524;12.052;2022-08-21T13:25:09;86551.41;;;38.50;95.38
56198;BME280;42700;42.524;12.052;2022-08-21T13:27:35;85852.00;;;38.96;94.70
56198;BME280;42700;42.524;12.052;2022-08-21T13:32:33;86349.06;;;39.39;93.50
56198;BME280;42700;42.524;12.052;2022-08-21T13:35:16;85758.44;;;39.57;91.32
56198;BME280;42700;42.524;12.052;2022-08-21T13:37:43;80008.25;;;37.98;77.45
56198;BME280;42700;42.524;12.052;2022-08-21T13:40:11;77989.31;;;36.19;82.33
56198;BME280;42700;42.524;12.052;2022-08-21T13:42:42;79073.41;;;35.76;86.64
56198;BME280;42700;42.524;12.052;2022-08-21T13:45:12;76264.66;;;34.58;86.41